Time;durP1;ratioP1;P1;durP2;ratioP2;P2;SDS_P1;SDS_P2;PMS_P1;PMS_P2;Temp;Humidity;BMP_temperature;BMP_pressure;BME280_temperature;BME280_humidity;BME280_pressure;Samples;Min_cycle;Max_cycle;Signal;HPM_P1;HPM_P2
2021/08/23 00:02:17;;;;;;;;;;;18.10;99.90;;;;;;5022216;28;19913;-83
2021/08/23 00:04:43;;;;;;;;;;;18.10;99.90;;;;;;5025191;28;19996;-83
2021/08/23 00:07:08;;;;;;;;;;;18.10;99.90;;;;;;5024629;28;19917;-83
2021/08/23 00:09:34;;;;;;;;;;;18.10;99.90;;;;;;5042123;28;19928;-83
2021/08/23 00:11:59;;;;;;;;;;;18.10;99.90;;;;;;5025462;28;19972;-83
2021/08/23 00:14:25;;;;;;;;;;;18.10;99.90;;;;;;5043567;28;19916;-82
2021/08/23 00:16:51;;;;;;;;;;;18.00;99.90;;;;;;5036898;28;20011;-83
2021/08/23 00:19:16;;;;;;;;;;;18.00;99.90;;;;;;5043166;28;19915;-83
2021/08/23 00:21:44;;;;;;;;;;;18.00;99.90;;;;;;5022139;28;20308;-83
2021/08/23 00:24:43;;;;;;;;;;;18.00;99.90;;;;;;5043277;28;19913;-83
2021/08/23 00:27:01;;;;;;;;;;;18.00;99.90;;;;;;5038757;28;19968;-83
2021/08/23 00:29:27;;;;;;;;;;;18.00;99.90;;;;;;5024780;28;19971;-83
2021/08/23 00:31:52;;;;;;;;;;;18.00;99.90;;;;;;5025202;28;19913;-83
2021/08/23 00:34:18;;;;;;;;;;;17.90;99.90;;;;;;5026184;28;20285;-83
2021/08/23 00:36:44;;;;;;;;;;;18.00;99.90;;;;;;5021921;28;19924;-83
2021/08/23 00:39:10;;;;;;;;;;;17.90;99.90;;;;;;5042155;28;20281;-83
2021/08/23 00:41:36;;;;;;;;;;;17.90;99.90;;;;;;5023203;28;19949;-83
2021/08/23 00:44:03;;;;;;;;;;;17.80;99.90;;;;;;5023727;28;19917;-83
2021/08/23 00:46:28;;;;;;;;;;;17.80;99.90;;;;;;5041738;28;19917;-84
2021/08/23 00:48:54;;;;;;;;;;;17.80;99.90;;;;;;5041808;28;19999;-83
2021/08/23 00:51:20;;;;;;;;;;;17.80;99.90;;;;;;5023573;28;19936;-83
2021/08/23 00:53:46;;;;;;;;;;;17.80;99.90;;;;;;5042614;28;20321;-83
2021/08/23 00:56:11;;;;;;;;;;;17.80;99.90;;;;;;5021754;28;19917;-83
2021/08/23 00:58:38;;;;;;;;;;;17.80;99.90;;;;;;5024816;28;19932;-83
2021/08/23 01:01:07;;;;;;;;;;;17.80;99.90;;;;;;5039777;28;19953;-83
2021/08/23 01:03:37;;;;;;;;;;;17.80;99.90;;;;;;5041660;28;19913;-83
2021/08/23 01:06:08;;;;;;;;;;;17.80;99.90;;;;;;5041750;28;19913;-83
2021/08/23 01:08:38;;;;;;;;;;;17.80;99.90;;;;;;5041893;28;19913;-83
2021/08/23 01:11:04;;;;;;;;;;;17.80;99.90;;;;;;5041274;28;19913;-83
2021/08/23 01:13:31;;;;;;;;;;;17.80;99.90;;;;;;5039894;28;19968;-84
2021/08/23 01:15:56;;;;;;;;;;;17.80;99.90;;;;;;5023310;28;19913;-83
2021/08/23 01:18:23;;;;;;;;;;;17.90;99.90;;;;;;5039688;28;20024;-83
2021/08/23 01:20:48;;;;;;;;;;;17.90;99.90;;;;;;5040306;28;20015;-83
2021/08/23 01:23:14;;;;;;;;;;;17.90;99.90;;;;;;5040332;28;19941;-83
2021/08/23 01:25:41;;;;;;;;;;;17.90;99.90;;;;;;5041800;28;19913;-83
2021/08/23 01:28:11;;;;;;;;;;;17.90;99.90;;;;;;5042285;28;19917;-83
2021/08/23 01:30:55;;;;;;;;;;;17.90;99.90;;;;;;5023159;28;19921;-83
2021/08/23 01:33:21;;;;;;;;;;;17.90;99.90;;;;;;5023992;28;19920;-83
2021/08/23 01:35:46;;;;;;;;;;;17.90;99.90;;;;;;5022525;28;19917;-83
2021/08/23 01:38:12;;;;;;;;;;;17.90;99.90;;;;;;5023691;28;19947;-83
2021/08/23 01:40:38;;;;;;;;;;;17.90;99.90;;;;;;5021968;28;19917;-83
2021/08/23 01:43:04;;;;;;;;;;;17.90;99.90;;;;;;5033786;28;19967;-83
2021/08/23 01:45:30;;;;;;;;;;;17.90;99.90;;;;;;5022789;28;19917;-83
2021/08/23 01:47:55;;;;;;;;;;;18.00;99.90;;;;;;5038003;28;19924;-83
2021/08/23 01:50:21;;;;;;;;;;;17.90;99.90;;;;;;5038279;28;19932;-83
2021/08/23 01:52:46;;;;;;;;;;;17.90;99.90;;;;;;5040451;28;19917;-83
2021/08/23 01:55:12;;;;;;;;;;;17.90;99.90;;;;;;5039704;28;20296;-84
2021/08/23 01:57:37;;;;;;;;;;;18.00;99.90;;;;;;5041097;28;19913;-84
2021/08/23 02:00:03;;;;;;;;;;;17.90;99.90;;;;;;5040047;28;19924;-82
2021/08/23 02:02:28;;;;;;;;;;;17.90;99.90;;;;;;5026661;28;19921;-82
2021/08/23 02:04:54;;;;;;;;;;;18.00;99.90;;;;;;5030262;28;19928;-83
2021/08/23 02:07:19;;;;;;;;;;;18.00;99.90;;;;;;5023268;28;19963;-83
2021/08/23 02:09:45;;;;;;;;;;;18.00;99.90;;;;;;5022130;28;19919;-83
2021/08/23 02:12:12;;;;;;;;;;;18.00;99.90;;;;;;5021897;28;19944;-83
2021/08/23 02:14:38;;;;;;;;;;;18.00;99.90;;;;;;5022923;28;19935;-83
2021/08/23 02:17:03;;;;;;;;;;;18.00;99.90;;;;;;5022289;28;19980;-83
2021/08/23 02:19:29;;;;;;;;;;;18.10;99.90;;;;;;5023296;28;20004;-83
2021/08/23 02:21:55;;;;;;;;;;;18.00;99.90;;;;;;5040208;28;19913;-83
2021/08/23 02:24:21;;;;;;;;;;;18.00;99.90;;;;;;5021465;28;19917;-83
2021/08/23 02:26:47;;;;;;;;;;;18.00;99.90;;;;;;5038216;28;19986;-83
2021/08/23 02:29:13;;;;;;;;;;;18.00;99.90;;;;;;5036769;28;19961;-82
2021/08/23 02:31:39;;;;;;;;;;;18.00;99.90;;;;;;5022058;28;19916;-83
2021/08/23 02:34:04;;;;;;;;;;;18.00;99.90;;;;;;5022072;28;20369;-83
2021/08/23 02:36:30;;;;;;;;;;;18.00;99.90;;;;;;5023416;28;19916;-83
2021/08/23 02:38:56;;;;;;;;;;;18.00;99.90;;;;;;5022653;28;19913;-82
2021/08/23 02:41:22;;;;;;;;;;;17.90;99.90;;;;;;5040475;28;19936;-83
2021/08/23 02:43:47;;;;;;;;;;;17.90;99.90;;;;;;5037764;28;19917;-83
2021/08/23 02:46:13;;;;;;;;;;;17.90;99.90;;;;;;5022375;28;19956;-83
2021/08/23 02:48:38;;;;;;;;;;;17.90;99.90;;;;;;5021567;28;19913;-83
2021/08/23 02:51:04;;;;;;;;;;;18.00;99.90;;;;;;5036889;28;19913;-83
2021/08/23 02:53:29;;;;;;;;;;;17.80;99.90;;;;;;5022804;28;19924;-83
2021/08/23 02:55:54;;;;;;;;;;;17.90;99.90;;;;;;5022171;28;20001;-83
2021/08/23 02:58:20;;;;;;;;;;;17.80;99.90;;;;;;5022257;28;19936;-83
2021/08/23 03:00:45;;;;;;;;;;;17.90;99.90;;;;;;5036161;28;19913;-83
2021/08/23 03:03:11;;;;;;;;;;;17.90;99.90;;;;;;5022776;28;19916;-83
2021/08/23 03:05:36;;;;;;;;;;;17.90;99.90;;;;;;5037908;28;19928;-83
2021/08/23 03:08:02;;;;;;;;;;;17.90;99.90;;;;;;5018858;28;20011;-83
2021/08/23 03:10:27;;;;;;;;;;;17.90;99.90;;;;;;5021762;28;20389;-83
2021/08/23 03:12:53;;;;;;;;;;;17.90;99.90;;;;;;5039950;28;19913;-82
2021/08/23 03:15:20;;;;;;;;;;;17.90;99.90;;;;;;5038743;28;19913;-83
2021/08/23 03:17:45;;;;;;;;;;;17.90;99.90;;;;;;5037612;28;20329;-83
2021/08/23 03:20:11;;;;;;;;;;;17.80;99.90;;;;;;5039426;28;19979;-83
2021/08/23 03:22:36;;;;;;;;;;;17.90;99.90;;;;;;5021171;28;19940;-83
2021/08/23 03:25:02;;;;;;;;;;;17.80;99.90;;;;;;5037398;28;19936;-83
2021/08/23 03:27:27;;;;;;;;;;;17.80;99.90;;;;;;5021800;28;19917;-84
2021/08/23 03:29:53;;;;;;;;;;;17.80;99.90;;;;;;5020706;28;19914;-83
2021/08/23 03:32:19;;;;;;;;;;;17.80;99.90;;;;;;5019300;28;20315;-82
2021/08/23 03:34:45;;;;;;;;;;;17.80;99.90;;;;;;5020345;28;19913;-83
2021/08/23 03:37:10;;;;;;;;;;;17.80;99.90;;;;;;5036687;28;19914;-83
2021/08/23 03:39:36;;;;;;;;;;;17.70;99.90;;;;;;5037955;28;19919;-83
2021/08/23 03:42:01;;;;;;;;;;;17.70;99.90;;;;;;5021941;28;19917;-83
2021/08/23 03:44:27;;;;;;;;;;;17.70;99.90;;;;;;5021622;28;19923;-85
2021/08/23 03:46:53;;;;;;;;;;;17.60;99.90;;;;;;5037705;28;20344;-83
2021/08/23 03:49:19;;;;;;;;;;;17.60;99.90;;;;;;5025478;28;19913;-82
2021/08/23 03:51:46;;;;;;;;;;;17.60;99.90;;;;;;5019591;28;19920;-83
2021/08/23 03:54:11;;;;;;;;;;;17.60;99.90;;;;;;5020215;28;19917;-83
2021/08/23 03:56:37;;;;;;;;;;;17.60;99.90;;;;;;5020768;28;19928;-83
2021/08/23 03:59:03;;;;;;;;;;;17.60;99.90;;;;;;5021751;28;19975;-83
2021/08/23 04:01:28;;;;;;;;;;;17.50;99.90;;;;;;5021859;28;19956;-83
2021/08/23 04:03:53;;;;;;;;;;;17.50;99.90;;;;;;5019185;28;19918;-84
2021/08/23 04:06:19;;;;;;;;;;;17.50;99.90;;;;;;5036089;28;19924;-82
2021/08/23 04:08:44;;;;;;;;;;;17.50;99.90;;;;;;5038563;28;19909;-84
2021/08/23 04:11:11;;;;;;;;;;;17.50;99.90;;;;;;5019247;28;20374;-83
2021/08/23 04:13:36;;;;;;;;;;;17.60;99.90;;;;;;5039204;28;20396;-83
2021/08/23 04:16:03;;;;;;;;;;;17.50;99.90;;;;;;5039198;28;19913;-83
2021/08/23 04:18:28;;;;;;;;;;;17.60;99.90;;;;;;5039575;28;19910;-83
2021/08/23 04:20:54;;;;;;;;;;;17.60;99.90;;;;;;5038123;28;20292;-83
2021/08/23 04:23:19;;;;;;;;;;;17.60;99.90;;;;;;5019612;28;19925;-83
2021/08/23 04:25:44;;;;;;;;;;;17.60;99.90;;;;;;5038025;28;20392;-83
2021/08/23 04:28:10;;;;;;;;;;;17.60;99.90;;;;;;5020444;28;19917;-83
2021/08/23 04:30:35;;;;;;;;;;;17.50;99.90;;;;;;5009281;28;19913;-83
2021/08/23 04:33:01;;;;;;;;;;;17.60;99.90;;;;;;5030436;28;19940;-83
2021/08/23 04:35:26;;;;;;;;;;;17.60;99.90;;;;;;5028270;28;19984;-84
2021/08/23 04:37:52;;;;;;;;;;;17.60;99.90;;;;;;5016824;28;19913;-83
2021/08/23 04:40:17;;;;;;;;;;;17.50;99.90;;;;;;5034749;28;20294;-83
2021/08/23 04:42:42;;;;;;;;;;;17.50;99.90;;;;;;5023691;28;19913;-83
2021/08/23 04:45:08;;;;;;;;;;;17.50;99.90;;;;;;5040831;28;19920;-83
2021/08/23 04:47:34;;;;;;;;;;;17.50;99.90;;;;;;5042306;28;20436;-83
2021/08/23 04:49:59;;;;;;;;;;;17.50;99.90;;;;;;5024445;28;19913;-83
2021/08/23 04:52:25;;;;;;;;;;;17.50;99.90;;;;;;5024734;28;20320;-84
2021/08/23 04:54:51;;;;;;;;;;;17.60;99.90;;;;;;5022411;28;19921;-83
2021/08/23 04:57:16;;;;;;;;;;;17.60;99.90;;;;;;5039686;28;19917;-82
2021/08/23 04:59:42;;;;;;;;;;;17.60;99.90;;;;;;5023665;28;20544;-83
2021/08/23 05:02:07;;;;;;;;;;;17.60;99.90;;;;;;5023314;28;19909;-84
2021/08/23 05:04:33;;;;;;;;;;;17.70;99.90;;;;;;5024174;28;19912;-83
2021/08/23 05:06:58;;;;;;;;;;;17.70;99.90;;;;;;5024516;28;19913;-83
2021/08/23 05:09:24;;;;;;;;;;;17.70;99.90;;;;;;5041979;28;19913;-83
2021/08/23 05:11:49;;;;;;;;;;;17.70;99.90;;;;;;5041180;28;19921;-83
2021/08/23 05:14:15;;;;;;;;;;;17.70;99.90;;;;;;5021130;28;19913;-83
2021/08/23 05:16:40;;;;;;;;;;;17.70;99.90;;;;;;5043881;28;19916;-82
2021/08/23 05:19:07;;;;;;;;;;;17.70;99.90;;;;;;5029848;28;19913;-83
2021/08/23 05:21:32;;;;;;;;;;;17.70;99.90;;;;;;5026427;28;19909;-83
2021/08/23 05:23:58;;;;;;;;;;;17.70;99.90;;;;;;5024076;28;19920;-83
2021/08/23 05:26:23;;;;;;;;;;;17.80;99.90;;;;;;5041366;28;19917;-82
2021/08/23 05:28:48;;;;;;;;;;;17.70;99.90;;;;;;5022161;28;19936;-83
2021/08/23 05:31:14;;;;;;;;;;;17.80;99.90;;;;;;5024185;28;19913;-82
2021/08/23 05:33:39;;;;;;;;;;;17.90;99.90;;;;;;5022352;28;20386;-83
2021/08/23 05:36:05;;;;;;;;;;;18.00;99.90;;;;;;5021039;28;19924;-83
2021/08/23 05:38:30;;;;;;;;;;;18.10;99.90;;;;;;5040960;28;20051;-82
2021/08/23 05:40:56;;;;;;;;;;;18.10;99.90;;;;;;5041207;28;19913;-83
2021/08/23 05:43:21;;;;;;;;;;;18.10;99.90;;;;;;5018653;28;19919;-83
2021/08/23 05:45:47;;;;;;;;;;;18.20;99.90;;;;;;5035416;28;19922;-82
2021/08/23 05:48:12;;;;;;;;;;;18.20;99.90;;;;;;5029829;28;19980;-83
2021/08/23 05:50:38;;;;;;;;;;;18.20;99.90;;;;;;5020167;28;19913;-83
2021/08/23 05:53:04;;;;;;;;;;;18.30;99.90;;;;;;5038475;28;19917;-83
2021/08/23 05:55:29;;;;;;;;;;;18.20;99.90;;;;;;5023225;28;20281;-83
2021/08/23 05:57:55;;;;;;;;;;;18.20;99.90;;;;;;5022952;28;20044;-82
2021/08/23 06:00:20;;;;;;;;;;;18.30;99.90;;;;;;5023119;28;19909;-83
2021/08/23 06:02:46;;;;;;;;;;;18.40;99.90;;;;;;5024282;28;19951;-83
2021/08/23 06:05:12;;;;;;;;;;;18.40;99.90;;;;;;5017246;28;19975;-81
2021/08/23 06:07:38;;;;;;;;;;;18.50;99.90;;;;;;5016789;28;19917;-83
2021/08/23 06:10:04;;;;;;;;;;;18.50;99.90;;;;;;5023118;28;19913;-83
2021/08/23 06:12:29;;;;;;;;;;;18.60;99.90;;;;;;5023476;28;19913;-84
2021/08/23 06:14:55;;;;;;;;;;;18.70;99.90;;;;;;5040594;28;19909;-83
2021/08/23 06:17:20;;;;;;;;;;;18.70;99.90;;;;;;5026161;28;20285;-81
2021/08/23 06:19:46;;;;;;;;;;;18.80;99.90;;;;;;5042988;28;19920;-81
2021/08/23 06:22:11;;;;;;;;;;;18.90;99.90;;;;;;5024235;28;20004;-82
2021/08/23 06:24:36;;;;;;;;;;;19.00;99.90;;;;;;5015069;28;20000;-83
2021/08/23 06:27:02;;;;;;;;;;;19.00;99.90;;;;;;5010578;28;19924;-83
2021/08/23 06:29:27;;;;;;;;;;;19.00;99.90;;;;;;5003862;28;19910;-82
2021/08/23 06:31:53;;;;;;;;;;;19.10;99.90;;;;;;5005573;28;19941;-83
2021/08/23 06:34:19;;;;;;;;;;;19.10;99.90;;;;;;5023715;28;19920;-83
2021/08/23 06:36:45;;;;;;;;;;;19.10;99.90;;;;;;5015402;28;19913;-83
2021/08/23 06:39:12;;;;;;;;;;;19.20;99.90;;;;;;5023297;28;19917;-83
2021/08/23 06:41:37;;;;;;;;;;;19.20;99.90;;;;;;5022385;28;19980;-82
2021/08/23 06:44:03;;;;;;;;;;;19.30;99.90;;;;;;5039948;28;19949;-83
2021/08/23 06:46:28;;;;;;;;;;;19.40;99.90;;;;;;5010575;28;19920;-82
2021/08/23 06:49:01;;;;;;;;;;;19.40;99.90;;;;;;5023235;28;19917;-82
2021/08/23 06:51:27;;;;;;;;;;;19.50;99.90;;;;;;5040346;28;19913;-83
2021/08/23 06:53:52;;;;;;;;;;;19.60;99.90;;;;;;5021721;28;19967;-83
2021/08/23 06:56:18;;;;;;;;;;;19.60;99.90;;;;;;5025920;28;19921;-83
2021/08/23 06:58:43;;;;;;;;;;;19.70;99.90;;;;;;5023391;28;19914;-83
2021/08/23 07:01:09;;;;;;;;;;;19.80;99.90;;;;;;5023287;28;19913;-83
2021/08/23 07:03:35;;;;;;;;;;;20.00;99.90;;;;;;5022927;28;19910;-82
2021/08/23 07:06:01;;;;;;;;;;;19.90;99.90;;;;;;5019183;28;19976;-83
2021/08/23 07:08:27;;;;;;;;;;;19.90;99.90;;;;;;5016849;28;19921;-83
2021/08/23 07:10:52;;;;;;;;;;;19.90;99.90;;;;;;5023815;28;19920;-83
2021/08/23 07:13:17;;;;;;;;;;;19.90;99.90;;;;;;5022643;28;19909;-83
2021/08/23 07:15:43;;;;;;;;;;;20.00;99.90;;;;;;5034413;28;19913;-83
2021/08/23 07:18:08;;;;;;;;;;;20.10;99.90;;;;;;5020885;28;19928;-83
2021/08/23 07:20:34;;;;;;;;;;;20.20;99.90;;;;;;5029675;28;20297;-83
2021/08/23 07:22:59;;;;;;;;;;;20.30;99.90;;;;;;5023134;28;20019;-83
2021/08/23 07:25:25;;;;;;;;;;;20.30;99.90;;;;;;5047918;28;19913;-82
2021/08/23 07:27:50;;;;;;;;;;;20.30;99.90;;;;;;5021487;28;20474;-83
2021/08/23 07:30:16;;;;;;;;;;;20.30;99.90;;;;;;5031417;28;19913;-83
2021/08/23 07:32:43;;;;;;;;;;;20.20;99.90;;;;;;5050964;28;19914;-83
2021/08/23 07:35:09;;;;;;;;;;;20.20;99.90;;;;;;5052059;28;19913;-84
2021/08/23 07:37:37;;;;;;;;;;;20.20;99.90;;;;;;5042039;28;20337;-83
2021/08/23 07:40:03;;;;;;;;;;;20.20;99.90;;;;;;5037901;28;19913;-83
2021/08/23 07:42:28;;;;;;;;;;;20.20;99.90;;;;;;5023638;28;19913;-83
2021/08/23 07:44:55;;;;;;;;;;;20.30;99.90;;;;;;5023450;28;20385;-83
2021/08/23 07:47:20;;;;;;;;;;;20.30;99.90;;;;;;5037845;28;19984;-83
2021/08/23 07:49:46;;;;;;;;;;;20.50;99.90;;;;;;5031255;28;19957;-82
2021/08/23 07:52:14;;;;;;;;;;;20.70;99.90;;;;;;5061312;28;20373;-84
2021/08/23 07:54:42;;;;;;;;;;;21.10;99.90;;;;;;5044315;28;20355;-83
2021/08/23 07:57:07;;;;;;;;;;;21.40;99.90;;;;;;5025787;28;19916;-84
2021/08/23 07:59:35;;;;;;;;;;;21.40;99.90;;;;;;5020054;28;19921;-83
2021/08/23 08:02:01;;;;;;;;;;;21.40;99.90;;;;;;5020680;28;20445;-83
2021/08/23 08:04:26;;;;;;;;;;;21.40;99.90;;;;;;5011738;28;20010;-84
2021/08/23 08:06:52;;;;;;;;;;;21.40;99.90;;;;;;5023846;28;20027;-83
2021/08/23 08:09:18;;;;;;;;;;;21.30;99.90;;;;;;5020531;28;19913;-83
2021/08/23 08:11:43;;;;;;;;;;;21.30;99.90;;;;;;5020380;28;19921;-83
2021/08/23 08:14:09;;;;;;;;;;;21.50;99.90;;;;;;5037631;28;19914;-83
2021/08/23 08:16:34;;;;;;;;;;;21.80;99.90;;;;;;5023868;28;20281;-83
2021/08/23 08:19:00;;;;;;;;;;;21.90;99.90;;;;;;5024607;28;19931;-83
2021/08/23 08:21:25;;;;;;;;;;;22.00;99.90;;;;;;5066320;28;19908;-83
2021/08/23 08:23:53;;;;;;;;;;;22.10;99.90;;;;;;5059074;28;19917;-84
2021/08/23 08:26:22;;;;;;;;;;;22.00;99.90;;;;;;5041196;28;19914;-84
2021/08/23 08:28:48;;;;;;;;;;;21.90;99.90;;;;;;5026696;28;19964;-84
2021/08/23 08:31:13;;;;;;;;;;;21.70;99.90;;;;;;5049665;28;19921;-82
2021/08/23 08:33:39;;;;;;;;;;;21.50;99.90;;;;;;5044048;28;20370;-84
2021/08/23 08:36:04;;;;;;;;;;;21.30;99.90;;;;;;5060796;28;19940;-84
2021/08/23 08:38:30;;;;;;;;;;;21.20;99.90;;;;;;5045879;28;19913;-84
2021/08/23 08:40:59;;;;;;;;;;;21.10;99.90;;;;;;5040321;28;19988;-83
2021/08/23 08:43:28;;;;;;;;;;;21.20;99.90;;;;;;5053008;28;19924;-84
2021/08/23 08:45:54;;;;;;;;;;;21.20;99.90;;;;;;5028815;28;19944;-83
2021/08/23 08:48:20;;;;;;;;;;;21.20;99.90;;;;;;5053413;28;19917;-83
2021/08/23 08:50:49;;;;;;;;;;;21.30;99.90;;;;;;5034915;28;19924;-84
2021/08/23 08:53:15;;;;;;;;;;;21.30;99.90;;;;;;5026439;28;19976;-84
2021/08/23 08:55:41;;;;;;;;;;;21.40;99.90;;;;;;5019170;28;19924;-84
2021/08/23 08:58:07;;;;;;;;;;;21.40;99.90;;;;;;5029699;28;19913;-84
2021/08/23 09:00:35;;;;;;;;;;;21.50;99.90;;;;;;5047420;28;19924;-84
2021/08/23 09:03:00;;;;;;;;;;;21.60;99.90;;;;;;5028886;28;19924;-84
2021/08/23 09:05:34;;;;;;;;;;;21.70;99.90;;;;;;5045767;28;19921;-84
2021/08/23 09:08:01;;;;;;;;;;;21.90;99.90;;;;;;5027854;28;19924;-84
2021/08/23 09:10:26;;;;;;;;;;;22.00;99.90;;;;;;5026527;28;19913;-83
2021/08/23 09:13:02;;;;;;;;;;;22.00;99.90;;;;;;5045074;28;19914;-83
2021/08/23 09:15:28;;;;;;;;;;;22.10;99.90;;;;;;5022437;28;19940;-84
2021/08/23 09:18:00;;;;;;;;;;;22.30;99.90;;;;;;5064549;28;19909;-84
2021/08/23 09:20:26;;;;;;;;;;;22.70;99.90;;;;;;5023102;28;20427;-83
2021/08/23 09:23:07;;;;;;;;;;;23.50;99.90;;;;;;5034408;28;19957;-83
2021/08/23 09:25:33;;;;;;;;;;;24.10;99.90;;;;;;5021530;28;20020;-84
2021/08/23 09:28:03;;;;;;;;;;;24.10;99.90;;;;;;5044535;28;19984;-83
2021/08/23 09:30:28;;;;;;;;;;;24.10;99.90;;;;;;5040779;28;19927;-84
2021/08/23 09:32:57;;;;;;;;;;;24.30;99.90;;;;;;5030552;28;19913;-84
2021/08/23 09:35:26;;;;;;;;;;;24.50;99.90;;;;;;5023574;28;19913;-83
2021/08/23 09:37:58;;;;;;;;;;;24.70;99.90;;;;;;5024157;28;20336;-84
2021/08/23 09:43:21;;;;;;;;;;;25.30;99.90;;;;;;5025840;28;20000;-84
2021/08/23 09:46:10;;;;;;;;;;;;;;;;;;;;;
2021/08/23 09:49:09;;;;;;;;;;;;;;;;;;;;;
2021/08/23 09:51:43;;;;;;;;;;;24.40;99.90;;;;;;5036697;28;19976;-84
2021/08/23 09:54:19;;;;;;;;;;;25.10;99.90;;;;;;5023796;28;19956;-84
2021/08/23 09:59:37;;;;;;;;;;;25.50;99.90;;;;;;5028452;28;19936;-84
2021/08/23 10:02:20;;;;;;;;;;;;;;;;;;;;;
2021/08/23 10:04:50;;;;;;;;;;;25.40;99.90;;;;;;5026681;28;19973;-84
2021/08/23 10:07:18;;;;;;;;;;;25.40;99.90;;;;;;5020093;28;19917;-84
2021/08/23 10:10:04;;;;;;;;;;;25.30;99.90;;;;;;5039519;28;19940;-84
2021/08/23 10:12:30;;;;;;;;;;;24.80;99.90;;;;;;5013018;28;19936;-84
2021/08/23 10:14:58;;;;;;;;;;;24.20;99.90;;;;;;5021893;28;19913;-85
2021/08/23 10:17:45;;;;;;;;;;;;;;;;;;;;;
2021/08/23 10:23:20;;;;;;;;;;;23.40;99.90;;;;;;5015365;28;19921;-84
2021/08/23 10:25:48;;;;;;;;;;;23.60;99.90;;;;;;5029093;28;19914;-85
2021/08/23 10:28:19;;;;;;;;;;;24.00;99.90;;;;;;5041453;28;19956;-84
2021/08/23 10:33:36;;;;;;;;;;;25.00;99.90;;;;;;5031010;28;19914;-84
2021/08/23 10:36:12;;;;;;;;;;;;;;;;;;;;;
2021/08/23 10:38:48;;;;;;;;;;;26.50;99.90;;;;;;5032665;28;19984;-85
2021/08/23 10:41:25;;;;;;;;;;;;;;;;;;;;;
2021/08/23 10:43:57;;;;;;;;;;;27.60;99.90;;;;;;5040033;28;20019;-84
2021/08/23 10:46:54;;;;;;;;;;;27.80;99.90;;;;;;5040823;28;20254;-84
2021/08/23 10:49:19;;;;;;;;;;;28.10;99.90;;;;;;5017256;28;20436;-85
2021/08/23 10:52:00;;;;;;;;;;;28.60;99.90;;;;;;5022957;28;19917;-84
2021/08/23 10:54:36;;;;;;;;;;;29.10;99.90;;;;;;5028012;28;19913;-84
2021/08/23 10:57:02;;;;;;;;;;;30.80;99.90;;;;;;5017338;28;19959;-83
2021/08/23 10:59:39;;;;;;;;;;;32.20;99.90;;;;;;5017362;28;19917;-83
2021/08/23 11:02:21;;;;;;;;;;;;;;;;;;;;;
2021/08/23 11:05:09;;;;;;;;;;;33.40;99.90;;;;;;5026767;28;19917;-84
2021/08/23 11:07:36;;;;;;;;;;;32.80;99.90;;;;;;5025469;28;19917;-83
2021/08/23 11:10:08;;;;;;;;;;;32.10;99.90;;;;;;5039353;28;20003;-83
2021/08/23 11:12:39;;;;;;;;;;;31.80;99.90;;;;;;5038292;28;19920;-84
2021/08/23 11:15:13;;;;;;;;;;;31.80;99.90;;;;;;5021827;28;19916;-84
2021/08/23 11:17:42;;;;;;;;;;;31.50;99.90;;;;;;5035094;28;19909;-84
2021/08/23 11:20:08;;;;;;;;;;;30.50;99.90;;;;;;5039373;28;19913;-83
2021/08/23 11:22:34;;;;;;;;;;;29.50;99.90;;;;;;5023201;28;19928;-83
2021/08/23 11:24:59;;;;;;;;;;;28.70;99.90;;;;;;5026293;28;19988;-84
2021/08/23 11:27:25;;;;;;;;;;;28.00;99.90;;;;;;5044242;28;19913;-83
2021/08/23 11:29:54;;;;;;;;;;;27.50;99.90;;;;;;5025272;28;19952;-86
2021/08/23 11:32:27;;;;;;;;;;;27.20;99.90;;;;;;5043439;28;19921;-83
2021/08/23 11:34:54;;;;;;;;;;;27.70;99.90;;;;;;5034586;28;19913;-83
2021/08/23 11:37:22;;;;;;;;;;;28.60;99.90;;;;;;5031262;28;19912;-84
2021/08/23 11:39:48;;;;;;;;;;;28.80;99.90;;;;;;5019507;28;20040;-84
2021/08/23 11:42:15;;;;;;;;;;;29.00;99.90;;;;;;5034300;28;19952;-84
2021/08/23 11:44:47;;;;;;;;;;;29.00;99.90;;;;;;5043470;28;19944;-85
2021/08/23 11:47:12;;;;;;;;;;;29.00;99.90;;;;;;5024682;28;19919;-85
2021/08/23 11:49:38;;;;;;;;;;;28.70;99.90;;;;;;5010048;28;19913;-84
2021/08/23 11:52:17;;;;;;;;;;;28.50;99.90;;;;;;5010920;28;19913;-84
2021/08/23 11:54:51;;;;;;;;;;;28.20;99.90;;;;;;5005070;28;19913;-84
2021/08/23 11:57:18;;;;;;;;;;;27.50;99.90;;;;;;5010692;28;19917;-84
2021/08/23 11:59:53;;;;;;;;;;;26.90;99.90;;;;;;5029886;28;20361;-84
2021/08/23 12:02:24;;;;;;;;;;;26.40;99.90;;;;;;5035468;28;19921;-84
2021/08/23 12:04:49;;;;;;;;;;;26.10;99.90;;;;;;5019199;28;19925;-83
2021/08/23 12:07:15;;;;;;;;;;;25.90;99.90;;;;;;5032388;28;20358;-84
2021/08/23 12:09:58;;;;;;;;;;;25.80;99.90;;;;;;5031039;28;19971;-83
2021/08/23 12:12:23;;;;;;;;;;;25.60;99.90;;;;;;5020459;28;19925;-84
2021/08/23 12:14:58;;;;;;;;;;;25.50;99.90;;;;;;5031229;28;19940;-82
2021/08/23 12:17:31;;;;;;;;;;;25.50;99.90;;;;;;5026859;28;19940;-83
2021/08/23 12:20:06;;;;;;;;;;;25.70;99.90;;;;;;5029529;28;19913;-84
2021/08/23 12:22:31;;;;;;;;;;;25.80;99.90;;;;;;5012433;28;19917;-83
2021/08/23 12:24:57;;;;;;;;;;;26.00;99.90;;;;;;5013886;28;20432;-83
2021/08/23 12:27:23;;;;;;;;;;;26.10;99.90;;;;;;5028580;28;19928;-84
2021/08/23 12:29:48;;;;;;;;;;;26.30;99.90;;;;;;5031754;28;19918;-83
2021/08/23 12:32:14;;;;;;;;;;;26.60;99.90;;;;;;5034744;28;19921;-84
2021/08/23 12:34:40;;;;;;;;;;;27.10;99.90;;;;;;5012240;28;19960;-84
2021/08/23 12:37:05;;;;;;;;;;;27.60;99.90;;;;;;5033555;28;19920;-83
2021/08/23 12:39:31;;;;;;;;;;;28.40;99.90;;;;;;5010143;28;20390;-83
2021/08/23 12:41:57;;;;;;;;;;;29.40;99.90;;;;;;5027646;28;20321;-84
2021/08/23 12:44:23;;;;;;;;;;;30.30;99.90;;;;;;5030630;28;19967;-83
2021/08/23 12:46:48;;;;;;;;;;;31.30;99.90;;;;;;5030797;28;20377;-85
2021/08/23 12:49:14;;;;;;;;;;;32.00;98.50;;;;;;5027032;28;20042;-85
2021/08/23 12:51:40;;;;;;;;;;;32.10;96.70;;;;;;5013843;28;19921;-83
2021/08/23 12:54:06;;;;;;;;;;;32.10;96.00;;;;;;5017653;28;20008;-85
2021/08/23 12:56:32;;;;;;;;;;;32.30;95.50;;;;;;5007624;28;20590;-83
2021/08/23 12:58:57;;;;;;;;;;;33.00;94.40;;;;;;5021308;28;19920;-83
2021/08/23 13:01:22;;;;;;;;;;;32.80;93.60;;;;;;5023116;28;20278;-83
2021/08/23 13:03:49;;;;;;;;;;;32.30;92.90;;;;;;5033379;28;19952;-83
2021/08/23 13:06:15;;;;;;;;;;;31.60;93.00;;;;;;5041441;28;19914;-84
2021/08/23 13:08:40;;;;;;;;;;;31.10;93.30;;;;;;5024117;28;20028;-82
2021/08/23 13:11:06;;;;;;;;;;;30.80;93.40;;;;;;5025561;28;19972;-83
2021/08/23 13:13:31;;;;;;;;;;;30.60;93.10;;;;;;5030870;28;19913;-84
2021/08/23 13:15:57;;;;;;;;;;;30.50;93.20;;;;;;5033466;28;19914;-84
2021/08/23 13:18:22;;;;;;;;;;;30.30;93.00;;;;;;5030356;28;19913;-84
2021/08/23 13:20:48;;;;;;;;;;;30.00;93.20;;;;;;5022076;28;19940;-85
2021/08/23 13:23:14;;;;;;;;;;;29.40;92.80;;;;;;5037883;28;19919;-84
2021/08/23 13:25:40;;;;;;;;;;;28.80;92.60;;;;;;5024821;28;19921;-84
2021/08/23 13:28:07;;;;;;;;;;;28.50;93.00;;;;;;5021292;28;19923;-84
2021/08/23 13:30:33;;;;;;;;;;;28.30;93.30;;;;;;5036644;28;19917;-84
2021/08/23 13:33:00;;;;;;;;;;;28.40;93.40;;;;;;5023331;28;19914;-84
2021/08/23 13:35:26;;;;;;;;;;;28.70;93.70;;;;;;5023590;28;19913;-84
2021/08/23 13:37:51;;;;;;;;;;;29.70;93.10;;;;;;5031987;28;19935;-84
2021/08/23 13:40:17;;;;;;;;;;;30.50;92.50;;;;;;5030765;28;20011;-85
2021/08/23 13:42:42;;;;;;;;;;;30.70;91.90;;;;;;5025353;28;19913;-84
2021/08/23 13:45:08;;;;;;;;;;;30.60;91.40;;;;;;5024926;28;19920;-85
2021/08/23 13:47:33;;;;;;;;;;;30.50;91.40;;;;;;5014061;28;19964;-84
2021/08/23 13:49:59;;;;;;;;;;;30.30;91.30;;;;;;5032309;28;19920;-84
2021/08/23 13:52:25;;;;;;;;;;;30.00;91.10;;;;;;5029802;28;19925;-85
2021/08/23 13:54:50;;;;;;;;;;;29.80;91.10;;;;;;5019180;28;19975;-84
2021/08/23 13:57:15;;;;;;;;;;;29.50;91.00;;;;;;5036433;28;19913;-85
2021/08/23 13:59:41;;;;;;;;;;;29.40;91.10;;;;;;5028474;28;19914;-85
2021/08/23 14:02:06;;;;;;;;;;;29.20;91.20;;;;;;5029986;28;20369;-84
2021/08/23 14:04:33;;;;;;;;;;;29.00;91.30;;;;;;5040356;28;20291;-84
2021/08/23 14:06:59;;;;;;;;;;;29.00;91.20;;;;;;5044069;28;19924;-83
2021/08/23 14:09:25;;;;;;;;;;;28.90;91.10;;;;;;5020064;28;19921;-84
2021/08/23 14:11:50;;;;;;;;;;;28.90;91.30;;;;;;5011553;28;19964;-84
2021/08/23 14:14:16;;;;;;;;;;;28.90;91.30;;;;;;5035402;28;19920;-84
2021/08/23 14:16:41;;;;;;;;;;;29.20;91.10;;;;;;5015998;28;19995;-84
2021/08/23 14:19:08;;;;;;;;;;;29.30;90.90;;;;;;5048352;28;19913;-84
2021/08/23 14:21:34;;;;;;;;;;;29.30;90.30;;;;;;5024552;28;19986;-85
2021/08/23 14:23:59;;;;;;;;;;;29.30;90.20;;;;;;5045018;28;19976;-84
2021/08/23 14:26:24;;;;;;;;;;;29.60;90.00;;;;;;5023575;28;19955;-84
2021/08/23 14:28:50;;;;;;;;;;;29.50;89.50;;;;;;5017191;28;20395;-82
2021/08/23 14:31:16;;;;;;;;;;;29.50;89.60;;;;;;5016654;28;19917;-84
2021/08/23 14:33:44;;;;;;;;;;;29.60;89.50;;;;;;5013529;28;19913;-84
2021/08/23 14:36:16;;;;;;;;;;;29.60;89.50;;;;;;5021537;28;20293;-85